sensor_id;sensor_type;location;lat;lon;timestamp;temperature;humidity
40556;DHT22;26250;45.422;11.100;2022-11-25T07:01:40;8.90;98.40
40556;DHT22;26250;45.422;11.100;2022-11-25T07:04:08;9.00;98.40
40556;DHT22;26250;45.422;11.100;2022-11-25T07:06:34;9.10;98.20
40556;DHT22;26250;45.422;11.100;2022-11-25T07:09:02;9.20;98.20
40556;DHT22;26250;45.422;11.100;2022-11-25T07:11:34;9.20;97.90
40556;DHT22;26250;45.422;11.100;2022-11-25T07:14:04;9.30;97.70
40556;DHT22;26250;45.422;11.100;2022-11-25T07:16:32;9.30;97.60
40556;DHT22;26250;45.422;11.100;2022-11-25T07:19:00;9.40;97.60
40556;DHT22;26250;45.422;11.100;2022-11-25T07:21:31;9.30;97.80
40556;DHT22;26250;45.422;11.100;2022-11-25T07:24:00;9.10;97.90
40556;DHT22;26250;45.422;11.100;2022-11-25T07:26:29;8.90;98.30
40556;DHT22;26250;45.422;11.100;2022-11-25T07:28:59;8.90;98.60
40556;DHT22;26250;45.422;11.100;2022-11-25T07:34:01;9.30;99.90
40556;DHT22;26250;45.422;11.100;2022-11-25T07:36:29;9.60;99.90
40556;DHT22;26250;45.422;11.100;2022-11-25T07:38:58;9.70;99.90
40556;DHT22;26250;45.422;11.100;2022-11-25T07:41:26;10.00;99.90
40556;DHT22;26250;45.422;11.100;2022-11-25T07:43:59;10.20;99.90
40556;DHT22;26250;45.422;11.100;2022-11-25T07:46:35;10.50;99.90
40556;DHT22;26250;45.422;11.100;2022-11-25T07:49:05;10.60;99.90
40556;DHT22;26250;45.422;11.100;2022-11-25T07:51:35;10.80;99.90
40556;DHT22;26250;45.422;11.100;2022-11-25T07:54:04;10.60;99.90
40556;DHT22;26250;45.422;11.100;2022-11-25T07:56:33;10.80;99.90
40556;DHT22;26250;45.422;11.100;2022-11-25T07:59:01;10.80;99.90
40556;DHT22;26250;45.422;11.100;2022-11-25T08:01:28;10.90;99.90
40556;DHT22;26250;45.422;11.100;2022-11-25T08:03:55;11.20;99.90
40556;DHT22;26250;45.422;11.100;2022-11-25T08:06:25;11.40;99.90
40556;DHT22;26250;45.422;11.100;2022-11-25T08:08:54;11.20;99.90
40556;DHT22;26250;45.422;11.100;2022-11-25T08:11:28;10.90;99.90
40556;DHT22;26250;45.422;11.100;2022-11-25T08:13:56;10.70;99.70
40556;DHT22;26250;45.422;11.100;2022-11-25T08:16:28;10.50;99.00
40556;DHT22;26250;45.422;11.100;2022-11-25T08:18:58;10.40;99.10
40556;DHT22;26250;45.422;11.100;2022-11-25T08:21:26;10.30;99.90
40556;DHT22;26250;45.422;11.100;2022-11-25T08:23:53;10.40;98.90
40556;DHT22;26250;45.422;11.100;2022-11-25T08:26:25;10.50;99.90
40556;DHT22;26250;45.422;11.100;2022-11-25T08:28:53;10.70;99.90
40556;DHT22;26250;45.422;11.100;2022-11-25T08:31:22;10.60;98.70
40556;DHT22;26250;45.422;11.100;2022-11-25T08:33:52;10.60;97.90
40556;DHT22;26250;45.422;11.100;2022-11-25T08:36:20;10.60;97.70
40556;DHT22;26250;45.422;11.100;2022-11-25T08:38:49;10.60;97.40
40556;DHT22;26250;45.422;11.100;2022-11-25T08:41:19;10.70;97.50
40556;DHT22;26250;45.422;11.100;2022-11-25T08:43:46;10.70;97.40
40556;DHT22;26250;45.422;11.100;2022-11-25T08:46:19;10.70;97.40
40556;DHT22;26250;45.422;11.100;2022-11-25T08:48:46;10.80;97.30
40556;DHT22;26250;45.422;11.100;2022-11-25T08:51:20;10.80;97.20
40556;DHT22;26250;45.422;11.100;2022-11-25T08:53:47;10.90;97.40
40556;DHT22;26250;45.422;11.100;2022-11-25T08:56:18;11.00;97.60
40556;DHT22;26250;45.422;11.100;2022-11-25T08:58:52;11.00;97.60
40556;DHT22;26250;45.422;11.100;2022-11-25T09:01:20;11.10;97.30
40556;DHT22;26250;45.422;11.100;2022-11-25T09:03:50;11.20;96.90
40556;DHT22;26250;45.422;11.100;2022-11-25T09:06:18;11.20;96.70
40556;DHT22;26250;45.422;11.100;2022-11-25T09:08:46;11.30;96.50
40556;DHT22;26250;45.422;11.100;2022-11-25T09:11:13;11.40;96.60
40556;DHT22;26250;45.422;11.100;2022-11-25T09:13:40;11.50;96.50
40556;DHT22;26250;45.422;11.100;2022-11-25T09:16:07;11.60;96.30
40556;DHT22;26250;45.422;11.100;2022-11-25T09:18:38;11.70;96.20
40556;DHT22;26250;45.422;11.100;2022-11-25T09:21:10;11.70;95.10
40556;DHT22;26250;45.422;11.100;2022-11-25T09:23:38;11.70;94.10
40556;DHT22;26250;45.422;11.100;2022-11-25T09:26:06;11.80;93.70
40556;DHT22;26250;45.422;11.100;2022-11-25T09:28:35;11.80;93.40
40556;DHT22;26250;45.422;11.100;2022-11-25T09:31:07;11.90;92.80
40556;DHT22;26250;45.422;11.100;2022-11-25T09:33:35;12.00;92.90
40556;DHT22;26250;45.422;11.100;2022-11-25T09:36:03;12.10;92.80
40556;DHT22;26250;45.422;11.100;2022-11-25T09:38:31;12.10;92.70
40556;DHT22;26250;45.422;11.100;2022-11-25T09:41:25;12.20;92.60
40556;DHT22;26250;45.422;11.100;2022-11-25T09:53:50;12.50;92.40
40556;DHT22;26250;45.422;11.100;2022-11-25T09:56:00;12.50;91.90
40556;DHT22;26250;45.422;11.100;2022-11-25T09:58:47;12.60;92.60
40556;DHT22;26250;45.422;11.100;2022-11-25T10:01:20;12.60;92.50
40556;DHT22;26250;45.422;11.100;2022-11-25T10:06:24;12.70;92.20
40556;DHT22;26250;45.422;11.100;2022-11-25T10:08:58;12.70;93.00
40556;DHT22;26250;45.422;11.100;2022-11-25T10:22:34;13.00;93.50
40556;DHT22;26250;45.422;11.100;2022-11-25T10:25:23;13.00;93.50
40556;DHT22;26250;45.422;11.100;2022-11-25T10:27:58;13.20;95.90
40556;DHT22;26250;45.422;11.100;2022-11-25T10:30:31;13.20;94.90
40556;DHT22;26250;45.422;11.100;2022-11-25T10:33:23;13.20;95.10
40556;DHT22;26250;45.422;11.100;2022-11-25T10:41:16;13.30;94.20
40556;DHT22;26250;45.422;11.100;2022-11-25T10:43:45;13.40;96.30
40556;DHT22;26250;45.422;11.100;2022-11-25T10:46:43;13.50;94.10
40556;DHT22;26250;45.422;11.100;2022-11-25T10:52:12;13.70;94.20
40556;DHT22;26250;45.422;11.100;2022-11-25T10:54:39;13.70;93.20
40556;DHT22;26250;45.422;11.100;2022-11-25T10:57:18;13.70;93.30
40556;DHT22;26250;45.422;11.100;2022-11-25T10:59:59;13.70;92.90
40556;DHT22;26250;45.422;11.100;2022-11-25T11:02:37;13.80;93.00
40556;DHT22;26250;45.422;11.100;2022-11-25T11:07:45;13.90;93.60
40556;DHT22;26250;45.422;11.100;2022-11-25T11:12:53;14.00;93.50
40556;DHT22;26250;45.422;11.100;2022-11-25T11:17:49;14.10;93.70
40556;DHT22;26250;45.422;11.100;2022-11-25T11:20:29;14.20;93.30
40556;DHT22;26250;45.422;11.100;2022-11-25T11:23:01;14.30;94.20
40556;DHT22;26250;45.422;11.100;2022-11-25T11:25:40;14.30;92.50
40556;DHT22;26250;45.422;11.100;2022-11-25T11:28:36;14.30;93.00
40556;DHT22;26250;45.422;11.100;2022-11-25T11:31:37;14.40;92.30
40556;DHT22;26250;45.422;11.100;2022-11-25T11:37:20;14.40;92.20
40556;DHT22;26250;45.422;11.100;2022-11-25T11:42:26;14.40;92.50
40556;DHT22;26250;45.422;11.100;2022-11-25T11:45:00;14.30;93.10
40556;DHT22;26250;45.422;11.100;2022-11-25T11:50:29;14.20;93.20
40556;DHT22;26250;45.422;11.100;2022-11-25T12:01:33;14.20;92.60
40556;DHT22;26250;45.422;11.100;2022-11-25T12:04:20;14.30;92.80
40556;DHT22;26250;45.422;11.100;2022-11-25T12:07:02;14.20;92.60
40556;DHT22;26250;45.422;11.100;2022-11-25T12:09:37;14.20;92.50
40556;DHT22;26250;45.422;11.100;2022-11-25T12:12:14;14.20;92.80
40556;DHT22;26250;45.422;11.100;2022-11-25T12:14:45;14.30;92.80
40556;DHT22;26250;45.422;11.100;2022-11-25T12:17:35;14.20;92.90
40556;DHT22;26250;45.422;11.100;2022-11-25T12:20:29;14.40;92.50
40556;DHT22;26250;45.422;11.100;2022-11-25T12:23:18;14.40;92.30
40556;DHT22;26250;45.422;11.100;2022-11-25T12:25:48;14.40;92.20
40556;DHT22;26250;45.422;11.100;2022-11-25T12:28:22;14.50;91.80
40556;DHT22;26250;45.422;11.100;2022-11-25T12:33:51;14.40;91.50
40556;DHT22;26250;45.422;11.100;2022-11-25T12:36:33;14.40;91.40
40556;DHT22;26250;45.422;11.100;2022-11-25T12:42:11;14.40;91.10
40556;DHT22;26250;45.422;11.100;2022-11-25T12:47:15;14.80;90.70
40556;DHT22;26250;45.422;11.100;2022-11-25T12:49:47;14.70;90.20
40556;DHT22;26250;45.422;11.100;2022-11-25T12:52:44;14.60;90.80
40556;DHT22;26250;45.422;11.100;2022-11-25T12:55:18;14.60;90.70
40556;DHT22;26250;45.422;11.100;2022-11-25T13:03:33;14.70;90.20
40556;DHT22;26250;45.422;11.100;2022-11-25T18:36:49;11.20;96.30
40556;DHT22;26250;45.422;11.100;2022-11-25T18:39:17;11.20;95.50
40556;DHT22;26250;45.422;11.100;2022-11-25T18:41:50;11.00;96.40
40556;DHT22;26250;45.422;11.100;2022-11-25T18:44:25;11.00;96.60
40556;DHT22;26250;45.422;11.100;2022-11-25T18:46:53;11.10;96.40
40556;DHT22;26250;45.422;11.100;2022-11-25T18:49:21;11.00;96.40
40556;DHT22;26250;45.422;11.100;2022-11-25T18:51:49;11.00;96.40
40556;DHT22;26250;45.422;11.100;2022-11-25T18:54:16;11.00;96.80
40556;DHT22;26250;45.422;11.100;2022-11-25T18:56:43;11.30;99.90
40556;DHT22;26250;45.422;11.100;2022-11-25T18:59:14;11.40;97.90
40556;DHT22;26250;45.422;11.100;2022-11-25T19:01:43;11.20;96.50
40556;DHT22;26250;45.422;11.100;2022-11-25T19:04:15;11.00;96.80
40556;DHT22;26250;45.422;11.100;2022-11-25T19:06:42;10.80;96.90
40556;DHT22;26250;45.422;11.100;2022-11-25T19:09:10;10.80;97.00
40556;DHT22;26250;45.422;11.100;2022-11-25T19:11:42;10.60;96.70
40556;DHT22;26250;45.422;11.100;2022-11-25T19:14:13;10.60;97.00
40556;DHT22;26250;45.422;11.100;2022-11-25T19:16:43;10.50;97.20
40556;DHT22;26250;45.422;11.100;2022-11-25T19:19:14;10.40;97.40
40556;DHT22;26250;45.422;11.100;2022-11-25T19:21:42;10.50;97.10
40556;DHT22;26250;45.422;11.100;2022-11-25T19:24:13;10.40;97.30
40556;DHT22;26250;45.422;11.100;2022-11-25T19:26:42;10.50;97.20
40556;DHT22;26250;45.422;11.100;2022-11-25T19:29:16;10.30;97.40
40556;DHT22;26250;45.422;11.100;2022-11-25T19:31:44;10.40;97.40
40556;DHT22;26250;45.422;11.100;2022-11-25T19:34:23;10.40;98.20
40556;DHT22;26250;45.422;11.100;2022-11-25T19:36:51;10.30;97.60
40556;DHT22;26250;45.422;11.100;2022-11-25T19:39:18;10.30;97.40
40556;DHT22;26250;45.422;11.100;2022-11-25T19:41:45;10.30;97.40
40556;DHT22;26250;45.422;11.100;2022-11-25T19:44:12;10.40;97.30
40556;DHT22;26250;45.422;11.100;2022-11-25T19:46:43;10.40;97.20
40556;DHT22;26250;45.422;11.100;2022-11-25T19:49:31;10.40;97.10
40556;DHT22;26250;45.422;11.100;2022-11-25T19:51:58;10.50;97.00
40556;DHT22;26250;45.422;11.100;2022-11-25T19:54:25;10.30;97.30
40556;DHT22;26250;45.422;11.100;2022-11-25T19:56:52;10.30;97.30
40556;DHT22;26250;45.422;11.100;2022-11-25T19:59:19;10.30;97.20
40556;DHT22;26250;45.422;11.100;2022-11-25T20:01:46;10.40;97.00
40556;DHT22;26250;45.422;11.100;2022-11-25T20:04:19;10.30;96.90
40556;DHT22;26250;45.422;11.100;2022-11-25T20:06:47;10.30;96.70
40556;DHT22;26250;45.422;11.100;2022-11-25T20:09:14;10.30;97.10
40556;DHT22;26250;45.422;11.100;2022-11-25T20:11:42;10.40;97.00
40556;DHT22;26250;45.422;11.100;2022-11-25T20:14:09;10.40;96.90
40556;DHT22;26250;45.422;11.100;2022-11-25T20:16:37;10.60;99.90
40556;DHT22;26250;45.422;11.100;2022-11-25T20:19:06;10.60;97.00
40556;DHT22;26250;45.422;11.100;2022-11-25T20:21:39;10.50;96.80
40556;DHT22;26250;45.422;11.100;2022-11-25T20:24:13;10.50;96.90
40556;DHT22;26250;45.422;11.100;2022-11-25T20:26:42;10.50;96.70
40556;DHT22;26250;45.422;11.100;2022-11-25T20:29:19;10.50;96.60
40556;DHT22;26250;45.422;11.100;2022-11-25T20:31:54;10.50;96.60
40556;DHT22;26250;45.422;11.100;2022-11-25T20:34:21;10.50;96.30
40556;DHT22;26250;45.422;11.100;2022-11-25T20:36:48;10.60;96.40
40556;DHT22;26250;45.422;11.100;2022-11-25T20:39:17;10.50;96.20
40556;DHT22;26250;45.422;11.100;2022-11-25T20:41:48;10.50;97.30
40556;DHT22;26250;45.422;11.100;2022-11-25T20:44:16;10.50;96.60
40556;DHT22;26250;45.422;11.100;2022-11-25T20:46:45;10.50;96.60
40556;DHT22;26250;45.422;11.100;2022-11-25T20:49:20;10.50;96.50
40556;DHT22;26250;45.422;11.100;2022-11-25T20:51:47;10.50;96.50
40556;DHT22;26250;45.422;11.100;2022-11-25T20:54:15;10.60;96.40
40556;DHT22;26250;45.422;11.100;2022-11-25T20:56:43;10.70;96.10
40556;DHT22;26250;45.422;11.100;2022-11-25T20:59:21;10.60;96.20
40556;DHT22;26250;45.422;11.100;2022-11-25T21:01:52;10.50;96.50
40556;DHT22;26250;45.422;11.100;2022-11-25T21:04:20;10.40;96.70
40556;DHT22;26250;45.422;11.100;2022-11-25T21:06:48;10.40;96.70
40556;DHT22;26250;45.422;11.100;2022-11-25T21:09:20;10.50;96.50
40556;DHT22;26250;45.422;11.100;2022-11-25T21:11:49;10.60;96.40
40556;DHT22;26250;45.422;11.100;2022-11-25T21:14:17;10.60;96.00
40556;DHT22;26250;45.422;11.100;2022-11-25T21:16:46;10.50;96.50
40556;DHT22;26250;45.422;11.100;2022-11-25T21:19:13;10.60;96.20
40556;DHT22;26250;45.422;11.100;2022-11-25T21:21:44;10.60;95.90
40556;DHT22;26250;45.422;11.100;2022-11-25T21:24:20;10.60;95.80
40556;DHT22;26250;45.422;11.100;2022-11-25T21:26:50;10.60;95.90
40556;DHT22;26250;45.422;11.100;2022-11-25T21:29:17;10.50;96.20
40556;DHT22;26250;45.422;11.100;2022-11-25T21:31:44;10.60;96.20
40556;DHT22;26250;45.422;11.100;2022-11-25T21:34:12;10.70;96.70
40556;DHT22;26250;45.422;11.100;2022-11-25T21:36:40;10.70;95.60
40556;DHT22;26250;45.422;11.100;2022-11-25T21:41:47;10.70;95.10
